createdAt,value
2023-02-13T00:08:18.007Z,101359.62
2023-02-13T00:18:21.652Z,101360.54
2023-02-13T00:28:27.704Z,101352.60
2023-02-13T00:38:32.324Z,101350.54
2023-02-13T00:48:37.641Z,101355.58
2023-02-13T00:58:42.937Z,101354.27
2023-02-13T01:08:46.861Z,101350.94
2023-02-13T01:18:51.940Z,101340.89
2023-02-13T01:28:55.762Z,101345.50
2023-02-13T01:39:00.044Z,101353.95
2023-02-13T01:49:12.141Z,101354.46
2023-02-13T01:59:29.908Z,101346.98
2023-02-13T02:09:39.355Z,101347.75
2023-02-13T02:19:54.777Z,101348.86
2023-02-13T02:30:31.740Z,101347.40
2023-02-13T02:40:49.607Z,101345.50
2023-02-13T02:51:11.074Z,101346.79
2023-02-13T03:01:38.000Z,101353.45
2023-02-13T03:12:06.391Z,101358.22
2023-02-13T03:22:26.361Z,101358.96
2023-02-13T03:32:41.880Z,101366.76
2023-02-13T03:42:53.649Z,101370.23
2023-02-13T03:53:06.583Z,101372.79
2023-02-13T04:03:12.107Z,101370.23
2023-02-13T04:13:42.352Z,101373.25
2023-02-13T04:23:45.984Z,101367.77
2023-02-13T04:33:54.604Z,101370.30
2023-02-13T04:43:59.840Z,101370.19
2023-02-13T04:54:05.617Z,101373.88
2023-02-13T05:04:09.336Z,101371.97
2023-02-13T05:14:13.832Z,101375.00
2023-02-13T05:24:20.193Z,101372.10
2023-02-13T05:34:26.728Z,101377.42
2023-02-13T05:44:31.588Z,101380.04
2023-02-13T05:54:37.350Z,101378.76
2023-02-13T06:04:41.618Z,101372.98
2023-02-13T06:14:45.223Z,101363.66
2023-02-13T06:24:48.971Z,101369.17
2023-02-13T06:34:54.661Z,101383.23
2023-02-13T06:44:58.569Z,101380.42
2023-02-13T06:55:05.745Z,101388.99
2023-02-13T07:05:12.065Z,101385.08
2023-02-13T07:15:17.752Z,101372.52
2023-02-13T07:25:21.316Z,101367.95
2023-02-13T07:35:25.329Z,101371.36
2023-02-13T07:45:30.226Z,101372.33
2023-02-13T07:55:34.847Z,101368.82
2023-02-13T08:05:39.165Z,101358.39
2023-02-13T08:15:44.768Z,101364.57
2023-02-13T08:25:50.048Z,101373.44
2023-02-13T08:35:57.184Z,101371.52
2023-02-13T08:46:01.460Z,101370.48
2023-02-13T08:56:06.842Z,101360.12
2023-02-13T09:06:12.548Z,101353.75
2023-02-13T09:16:16.713Z,101344.88
2023-02-13T09:26:22.100Z,101339.92
2023-02-13T09:36:25.841Z,101361.05
2023-02-13T09:46:38.417Z,101357.43
2023-02-13T09:57:00.976Z,101346.80
2023-02-13T10:07:23.584Z,101336.35
2023-02-13T10:17:36.092Z,101334.80
2023-02-13T10:27:44.750Z,101331.69
2023-02-13T10:37:51.928Z,101328.33
2023-02-13T10:48:27.078Z,101333.57
2023-02-13T10:58:59.681Z,101322.20
2023-02-13T11:09:06.295Z,101315.14
2023-02-13T11:19:23.627Z,101305.06
2023-02-13T11:29:33.108Z,101304.10
2023-02-13T11:39:36.775Z,101312.77
2023-02-13T11:49:46.651Z,101288.11
2023-02-13T11:59:52.790Z,101273.35
2023-02-13T12:10:12.820Z,101262.89
2023-02-13T12:20:18.120Z,101254.38
2023-02-13T12:30:55.817Z,101247.64
2023-02-13T12:41:33.629Z,101249.65
2023-02-13T12:52:02.176Z,101236.64
2023-02-13T13:02:12.080Z,101232.07
2023-02-13T13:12:30.637Z,101224.55
2023-02-13T13:22:51.389Z,101216.07
2023-02-13T13:33:08.712Z,101224.85
2023-02-13T13:43:31.689Z,101208.02
2023-02-13T13:53:38.373Z,101203.08
2023-02-13T14:03:56.608Z,101179.72
2023-02-13T14:14:22.642Z,101171.42
2023-02-13T14:24:26.399Z,101171.00
2023-02-13T14:34:33.674Z,101194.48
2023-02-13T14:44:51.579Z,101200.31
2023-02-13T14:55:18.242Z,101205.33
2023-02-13T15:05:24.543Z,101210.05
2023-02-13T15:15:29.511Z,101203.59
2023-02-13T15:25:39.544Z,101195.66
2023-02-13T15:35:43.321Z,101194.56
2023-02-13T15:45:49.080Z,101213.66
2023-02-13T15:56:15.438Z,101221.05
2023-02-13T16:06:21.695Z,101226.45
2023-02-13T16:16:26.529Z,101228.05
2023-02-13T16:26:31.861Z,101227.60
2023-02-13T16:36:35.524Z,101250.95
2023-02-13T16:46:53.731Z,101249.83
2023-02-13T16:57:06.690Z,101260.86
2023-02-13T17:07:19.446Z,101280.56
2023-02-13T17:17:24.284Z,101290.54
2023-02-13T17:27:28.285Z,101279.79
2023-02-13T17:37:33.037Z,101279.11
2023-02-13T17:47:36.867Z,101276.33
2023-02-13T17:57:40.602Z,101274.12
2023-02-13T18:07:47.291Z,101286.45
2023-02-13T18:17:50.944Z,101288.67
2023-02-13T18:27:55.691Z,101293.67
2023-02-13T18:37:59.595Z,101301.14
2023-02-13T18:48:05.790Z,101317.88
2023-02-13T18:58:11.348Z,101317.38
2023-02-13T19:08:15.149Z,101326.69
2023-02-13T19:18:20.936Z,101329.30
2023-02-13T19:28:25.486Z,101338.98
2023-02-13T19:38:29.135Z,101339.92
2023-02-13T19:48:33.033Z,101344.26
2023-02-13T19:58:39.554Z,101340.59
2023-02-13T20:08:48.228Z,101342.70
2023-02-13T20:18:52.528Z,101345.66
2023-02-13T20:28:59.965Z,101340.71
2023-02-13T20:39:08.063Z,101337.64
2023-02-13T20:49:23.425Z,101351.20
2023-02-13T20:59:30.887Z,101343.38
2023-02-13T21:09:38.096Z,101338.19
2023-02-13T21:19:41.815Z,101344.71
2023-02-13T21:29:47.354Z,101348.33
2023-02-13T21:39:50.850Z,101357.05
2023-02-13T21:49:54.558Z,101357.76
2023-02-13T22:00:02.176Z,101350.73
2023-02-13T22:10:16.050Z,101353.43
2023-02-13T22:20:22.455Z,101345.13
2023-02-13T22:30:26.248Z,101350.10
2023-02-13T22:40:31.385Z,101345.89
2023-02-13T22:50:35.505Z,101350.34
2023-02-13T23:00:39.953Z,101354.65
2023-02-13T23:11:04.952Z,101371.48
2023-02-13T23:21:10.210Z,101385.77
2023-02-13T23:31:13.980Z,101401.42
2023-02-13T23:41:17.653Z,101400.65
2023-02-13T23:51:23.259Z,101401.69
